Time;durP1;ratioP1;P1;durP2;ratioP2;P2;SDS_P1;SDS_P2;PMS_P1;PMS_P2;Temp;Humidity;BMP_temperature;BMP_pressure;BME280_temperature;BME280_humidity;BME280_pressure;Samples;Min_cycle;Max_cycle;Signal;HPM_P1;HPM_P2
2024/03/02 00:00:48;;;;;;;;;;;17.60;64.20;;;;;;5041283;28;1447;-71
2024/03/02 00:03:14;;;;;;;;;;;17.70;64.30;;;;;;5041546;28;1537;-70
2024/03/02 00:05:39;;;;;;;;;;;17.60;64.30;;;;;;5048951;28;1468;-71
2024/03/02 00:08:05;;;;;;;;;;;17.60;64.30;;;;;;5042149;28;1280;-70
2024/03/02 00:10:39;;;;;;;;;;;17.60;64.30;;;;;;5037252;28;1233;-70
2024/03/02 00:13:05;;;;;;;;;;;17.60;64.30;;;;;;5041735;28;1913;-73
2024/03/02 00:15:30;;;;;;;;;;;17.60;64.30;;;;;;5042101;28;1425;-72
2024/03/02 00:17:56;;;;;;;;;;;17.60;64.30;;;;;;5041941;28;1412;-73
2024/03/02 00:20:21;;;;;;;;;;;17.60;64.30;;;;;;5040414;28;1864;-73
2024/03/02 00:22:47;;;;;;;;;;;17.60;64.30;;;;;;5040732;28;1441;-70
2024/03/02 00:25:13;;;;;;;;;;;17.60;64.40;;;;;;5041386;28;1369;-70
2024/03/02 00:27:38;;;;;;;;;;;17.60;64.40;;;;;;5042579;28;1433;-69
2024/03/02 00:30:32;;;;;;;;;;;17.60;64.40;;;;;;5043090;28;1362;-71
2024/03/02 00:32:58;;;;;;;;;;;17.60;64.40;;;;;;5046981;28;1902;-72
2024/03/02 00:35:24;;;;;;;;;;;17.60;64.40;;;;;;5039467;28;1440;-70
2024/03/02 00:37:49;;;;;;;;;;;17.60;64.40;;;;;;5042480;28;1399;-69
2024/03/02 00:40:16;;;;;;;;;;;17.60;64.40;;;;;;5043647;28;1291;-71
2024/03/02 00:42:41;;;;;;;;;;;17.60;64.50;;;;;;5035836;28;1442;-70
2024/03/02 00:45:10;;;;;;;;;;;17.60;64.50;;;;;;5040708;28;1443;-70
2024/03/02 00:47:39;;;;;;;;;;;17.60;64.50;;;;;;5038339;28;1796;-68
2024/03/02 00:50:05;;;;;;;;;;;17.60;64.50;;;;;;5041180;28;1322;-69
2024/03/02 00:52:32;;;;;;;;;;;17.60;64.50;;;;;;5039951;28;1902;-69
2024/03/02 00:54:57;;;;;;;;;;;17.60;64.50;;;;;;5039462;28;1322;-71
2024/03/02 00:57:25;;;;;;;;;;;17.60;64.60;;;;;;5042308;28;1341;-70
2024/03/02 00:59:51;;;;;;;;;;;17.60;64.60;;;;;;5040663;28;1469;-70
2024/03/02 01:02:17;;;;;;;;;;;17.60;64.60;;;;;;5037587;28;1497;-69
2024/03/02 01:04:42;;;;;;;;;;;17.60;64.60;;;;;;5037536;28;1539;-70
2024/03/02 01:07:08;;;;;;;;;;;17.60;64.60;;;;;;5039836;28;1473;-70
2024/03/02 01:09:33;;;;;;;;;;;17.50;64.60;;;;;;5037988;28;1185;-70
2024/03/02 01:11:58;;;;;;;;;;;17.60;64.60;;;;;;5039504;28;1979;-71
2024/03/02 01:14:24;;;;;;;;;;;17.50;64.60;;;;;;5039939;28;1252;-70
2024/03/02 01:16:49;;;;;;;;;;;17.50;64.60;;;;;;5037906;28;1540;-69
2024/03/02 01:19:15;;;;;;;;;;;17.50;64.60;;;;;;5038506;28;1419;-68
2024/03/02 01:21:40;;;;;;;;;;;17.50;64.60;;;;;;5038742;28;1567;-70
2024/03/02 01:24:06;;;;;;;;;;;17.50;64.60;;;;;;5038034;28;1644;-68
2024/03/02 01:26:31;;;;;;;;;;;17.50;64.60;;;;;;5073993;28;1647;-72
2024/03/02 01:28:57;;;;;;;;;;;17.50;64.70;;;;;;5039492;28;1433;-70
2024/03/02 01:31:23;;;;;;;;;;;17.50;64.70;;;;;;5035531;28;1957;-71
2024/03/02 01:33:48;;;;;;;;;;;17.50;64.70;;;;;;5041751;28;1552;-70
2024/03/02 01:36:14;;;;;;;;;;;17.50;64.70;;;;;;5042348;28;1465;-72
2024/03/02 01:38:39;;;;;;;;;;;17.50;64.70;;;;;;5037641;28;1465;-71
2024/03/02 01:41:05;;;;;;;;;;;17.50;64.70;;;;;;5038116;28;1650;-71
2024/03/02 01:43:30;;;;;;;;;;;17.50;64.70;;;;;;5041446;28;1644;-67
2024/03/02 01:45:56;;;;;;;;;;;17.50;64.70;;;;;;5044630;28;1306;-71
2024/03/02 01:48:22;;;;;;;;;;;17.50;64.70;;;;;;5045538;28;1480;-69
2024/03/02 01:50:47;;;;;;;;;;;17.50;64.70;;;;;;5048066;28;1431;-69
2024/03/02 01:53:13;;;;;;;;;;;17.50;65.60;;;;;;5042903;28;1960;-69
2024/03/02 01:55:38;;;;;;;;;;;17.50;64.80;;;;;;5039942;28;1559;-68
2024/03/02 01:58:03;;;;;;;;;;;17.40;64.70;;;;;;5044770;28;1270;-69
2024/03/02 02:00:30;;;;;;;;;;;17.50;65.50;;;;;;5043325;28;1442;-70
2024/03/02 02:02:55;;;;;;;;;;;17.50;64.80;;;;;;5039295;28;1273;-70
2024/03/02 02:05:21;;;;;;;;;;;17.50;64.80;;;;;;5042305;28;1786;-70
2024/03/02 02:07:46;;;;;;;;;;;17.50;64.80;;;;;;5042035;28;1444;-70
2024/03/02 02:10:12;;;;;;;;;;;17.50;64.80;;;;;;5044152;28;1522;-70
2024/03/02 02:12:37;;;;;;;;;;;17.50;64.80;;;;;;5041153;28;2028;-70
2024/03/02 02:15:03;;;;;;;;;;;17.50;64.80;;;;;;5040991;28;1506;-69
2024/03/02 02:17:29;;;;;;;;;;;17.50;64.90;;;;;;5042707;28;1166;-69
2024/03/02 02:19:54;;;;;;;;;;;17.50;64.90;;;;;;5042659;28;1619;-68
2024/03/02 02:22:20;;;;;;;;;;;17.50;64.90;;;;;;5043312;28;1417;-69
2024/03/02 02:24:45;;;;;;;;;;;17.50;64.90;;;;;;5040483;28;1425;-67
2024/03/02 02:27:12;;;;;;;;;;;17.50;64.90;;;;;;5040103;28;1285;-67
2024/03/02 02:29:38;;;;;;;;;;;17.50;64.90;;;;;;5041763;28;1433;-68
2024/03/02 02:32:03;;;;;;;;;;;17.50;64.90;;;;;;5039163;28;1894;-69
2024/03/02 02:34:29;;;;;;;;;;;17.50;64.90;;;;;;5040801;28;1229;-67
2024/03/02 02:36:54;;;;;;;;;;;17.40;64.80;;;;;;5039937;28;1482;-67
2024/03/02 02:39:20;;;;;;;;;;;17.50;64.90;;;;;;5043458;28;1460;-70
2024/03/02 02:41:45;;;;;;;;;;;17.40;64.80;;;;;;5048778;28;1610;-69
2024/03/02 02:44:14;;;;;;;;;;;17.40;64.90;;;;;;5041301;28;1827;-70
2024/03/02 02:46:39;;;;;;;;;;;17.50;64.90;;;;;;5040646;28;1765;-69
2024/03/02 02:49:05;;;;;;;;;;;17.40;64.90;;;;;;5041217;28;1252;-69
2024/03/02 02:51:30;;;;;;;;;;;17.40;64.90;;;;;;5041105;28;1902;-69
2024/03/02 02:53:56;;;;;;;;;;;17.50;65.00;;;;;;5041363;28;1671;-69
2024/03/02 02:56:22;;;;;;;;;;;17.40;65.00;;;;;;5037710;28;1005;-69
2024/03/02 02:58:47;;;;;;;;;;;17.40;65.70;;;;;;5038504;28;1797;-70
2024/03/02 03:01:13;;;;;;;;;;;17.40;64.90;;;;;;5039891;28;1292;-69
2024/03/02 03:03:38;;;;;;;;;;;17.40;64.90;;;;;;5036916;28;1534;-69
2024/03/02 03:06:04;;;;;;;;;;;17.40;64.90;;;;;;5039997;28;1427;-69
2024/03/02 03:08:29;;;;;;;;;;;17.40;65.00;;;;;;5037566;28;1541;-69
2024/03/02 03:10:55;;;;;;;;;;;17.40;65.00;;;;;;5040948;28;1520;-69
2024/03/02 03:13:20;;;;;;;;;;;17.40;65.00;;;;;;5042809;28;1988;-69
2024/03/02 03:15:45;;;;;;;;;;;17.40;65.00;;;;;;5040535;28;1440;-69
2024/03/02 03:18:11;;;;;;;;;;;17.40;65.00;;;;;;5039765;28;1455;-69
2024/03/02 03:20:36;;;;;;;;;;;17.40;65.00;;;;;;5039502;28;1432;-69
2024/03/02 03:23:03;;;;;;;;;;;17.40;65.00;;;;;;5040967;28;1351;-70
2024/03/02 03:25:29;;;;;;;;;;;17.40;65.00;;;;;;5041763;28;1340;-69
2024/03/02 03:27:55;;;;;;;;;;;17.40;65.00;;;;;;5043119;28;1631;-69
2024/03/02 03:30:20;;;;;;;;;;;17.40;65.00;;;;;;5042628;28;1266;-70
2024/03/02 03:32:47;;;;;;;;;;;17.40;65.00;;;;;;5044483;28;2013;-70
2024/03/02 03:35:14;;;;;;;;;;;17.40;65.00;;;;;;5040524;28;1344;-69
2024/03/02 03:37:40;;;;;;;;;;;17.40;65.00;;;;;;5074829;28;1409;-69
2024/03/02 03:40:12;;;;;;;;;;;17.40;65.00;;;;;;5041850;28;1325;-68
2024/03/02 03:42:37;;;;;;;;;;;17.40;65.00;;;;;;5039086;28;1372;-69
2024/03/02 03:45:03;;;;;;;;;;;17.40;65.10;;;;;;5044039;28;1483;-69
2024/03/02 03:47:29;;;;;;;;;;;17.40;65.20;;;;;;5043242;28;1471;-69
2024/03/02 03:49:54;;;;;;;;;;;17.40;65.10;;;;;;5042454;28;1206;-69
2024/03/02 03:52:21;;;;;;;;;;;17.40;65.10;;;;;;5040688;28;1902;-69
2024/03/02 03:54:46;;;;;;;;;;;17.40;65.10;;;;;;5042829;28;1458;-69
2024/03/02 03:57:12;;;;;;;;;;;17.40;65.10;;;;;;5036693;28;1597;-70
2024/03/02 03:59:37;;;;;;;;;;;17.40;65.10;;;;;;5042015;28;1330;-69
2024/03/02 04:02:03;;;;;;;;;;;17.40;65.10;;;;;;5041205;28;1489;-69
2024/03/02 04:04:28;;;;;;;;;;;17.40;65.10;;;;;;5040021;28;1407;-69
2024/03/02 04:06:54;;;;;;;;;;;17.40;65.10;;;;;;5040264;28;1622;-69
2024/03/02 04:09:19;;;;;;;;;;;17.40;65.20;;;;;;5037140;28;1266;-69
2024/03/02 04:11:45;;;;;;;;;;;17.40;65.20;;;;;;5041957;28;2009;-69
2024/03/02 04:14:12;;;;;;;;;;;17.40;65.20;;;;;;5041342;28;906;-69
2024/03/02 04:16:37;;;;;;;;;;;17.40;65.20;;;;;;5040638;28;1605;-69
2024/03/02 04:19:03;;;;;;;;;;;17.40;65.20;;;;;;5040216;28;974;-68
2024/03/02 04:21:29;;;;;;;;;;;17.40;65.20;;;;;;5039569;28;1303;-69
2024/03/02 04:23:58;;;;;;;;;;;17.40;65.20;;;;;;5039303;28;1463;-69
2024/03/02 04:26:25;;;;;;;;;;;17.40;65.20;;;;;;5038770;28;1251;-69
2024/03/02 04:28:50;;;;;;;;;;;17.40;65.20;;;;;;5041658;28;1312;-69
2024/03/02 04:31:16;;;;;;;;;;;17.40;65.20;;;;;;5036324;28;1906;-69
2024/03/02 04:33:42;;;;;;;;;;;17.40;65.20;;;;;;5037850;28;1537;-69
2024/03/02 04:36:09;;;;;;;;;;;17.40;65.20;;;;;;5037695;28;1467;-69
2024/03/02 04:38:35;;;;;;;;;;;17.40;66.00;;;;;;5038641;28;1435;-69
2024/03/02 04:41:00;;;;;;;;;;;17.40;65.20;;;;;;5041241;28;1791;-68
2024/03/02 04:43:28;;;;;;;;;;;17.40;65.20;;;;;;5039771;28;1316;-69
2024/03/02 04:45:54;;;;;;;;;;;17.40;65.30;;;;;;5041085;28;1420;-69
2024/03/02 04:48:19;;;;;;;;;;;17.40;65.20;;;;;;5039686;28;1452;-70
2024/03/02 04:50:45;;;;;;;;;;;17.40;65.30;;;;;;5039557;28;1317;-68
2024/03/02 04:53:10;;;;;;;;;;;17.40;65.40;;;;;;5042352;28;1952;-69
2024/03/02 04:58:05;;;;;;;;;;;17.30;65.20;;;;;;5039756;28;1497;-68
2024/03/02 05:00:30;;;;;;;;;;;17.30;65.20;;;;;;5039462;28;1509;-69
2024/03/02 05:02:56;;;;;;;;;;;17.40;65.30;;;;;;5037426;28;1505;-69
2024/03/02 05:05:21;;;;;;;;;;;17.30;65.20;;;;;;5038891;28;1304;-69
2024/03/02 05:07:47;;;;;;;;;;;17.30;65.20;;;;;;5039433;28;1488;-69
2024/03/02 05:10:12;;;;;;;;;;;17.40;65.30;;;;;;5038332;28;1262;-67
2024/03/02 05:15:10;;;;;;;;;;;17.40;65.20;;;;;;5034649;28;1137;-68
2024/03/02 05:17:38;;;;;;;;;;;17.50;65.10;;;;;;5043031;28;1093;-69
2024/03/02 05:20:04;;;;;;;;;;;17.60;65.10;;;;;;5040986;28;1093;-69
2024/03/02 05:22:30;;;;;;;;;;;17.70;65.00;;;;;;5072017;28;1280;-69
2024/03/02 05:24:56;;;;;;;;;;;17.80;64.80;;;;;;5042202;28;1120;-69
2024/03/02 05:27:21;;;;;;;;;;;17.90;64.50;;;;;;5038311;28;1195;-69
2024/03/02 05:29:47;;;;;;;;;;;18.10;64.30;;;;;;5042420;28;1395;-69
2024/03/02 05:32:12;;;;;;;;;;;18.20;63.90;;;;;;5038638;28;1899;-69
2024/03/02 05:34:38;;;;;;;;;;;18.30;63.60;;;;;;5036696;28;1384;-69
2024/03/02 05:37:03;;;;;;;;;;;18.40;63.20;;;;;;5041286;28;1103;-69
2024/03/02 05:39:29;;;;;;;;;;;18.50;62.90;;;;;;5039614;28;1266;-69
2024/03/02 05:41:54;;;;;;;;;;;18.60;62.50;;;;;;5040517;28;1463;-69
2024/03/02 05:44:20;;;;;;;;;;;18.70;62.30;;;;;;5034562;28;1120;-69
2024/03/02 05:46:45;;;;;;;;;;;18.80;61.90;;;;;;5040707;28;1247;-69
2024/03/02 05:49:11;;;;;;;;;;;18.90;61.60;;;;;;5037808;28;1268;-69
2024/03/02 05:51:36;;;;;;;;;;;18.90;61.30;;;;;;5038299;28;1895;-69
2024/03/02 05:54:02;;;;;;;;;;;19.00;61.10;;;;;;5040093;28;1355;-70
2024/03/02 05:56:28;;;;;;;;;;;19.00;60.90;;;;;;5038056;28;1462;-69
2024/03/02 05:59:12;;;;;;;;;;;19.00;60.70;;;;;;5042832;28;1470;-69
2024/03/02 06:01:44;;;;;;;;;;;19.10;60.60;;;;;;5039401;28;1468;-69
2024/03/02 06:04:10;;;;;;;;;;;19.10;60.50;;;;;;5038494;28;1387;-69
2024/03/02 06:06:36;;;;;;;;;;;19.10;60.40;;;;;;5038638;28;1479;-69
2024/03/02 06:09:05;;;;;;;;;;;19.10;60.40;;;;;;5046097;28;1333;-69
2024/03/02 06:11:30;;;;;;;;;;;19.20;60.40;;;;;;5037323;28;1909;-71
2024/03/02 06:13:56;;;;;;;;;;;19.20;60.40;;;;;;5039719;28;1369;-71
2024/03/02 06:16:21;;;;;;;;;;;19.10;60.30;;;;;;5039686;28;1330;-71
2024/03/02 06:18:47;;;;;;;;;;;19.20;60.30;;;;;;5023986;28;1184;-71
2024/03/02 06:21:12;;;;;;;;;;;19.20;60.30;;;;;;5038889;28;1284;-71
2024/03/02 06:23:38;;;;;;;;;;;19.20;60.40;;;;;;5036930;28;1511;-70
2024/03/02 06:26:03;;;;;;;;;;;19.10;60.30;;;;;;5038007;28;1431;-71
2024/03/02 06:28:29;;;;;;;;;;;19.10;60.30;;;;;;5043610;28;1518;-70
2024/03/02 06:30:54;;;;;;;;;;;19.10;60.30;;;;;;5040869;28;1425;-70
2024/03/02 06:33:20;;;;;;;;;;;19.10;60.40;;;;;;5041026;28;1969;-70
2024/03/02 06:35:45;;;;;;;;;;;19.10;60.40;;;;;;5041779;28;1247;-69
2024/03/02 06:38:11;;;;;;;;;;;19.10;60.40;;;;;;5043429;28;1238;-69
2024/03/02 06:40:38;;;;;;;;;;;19.10;60.50;;;;;;5044513;28;1247;-70
2024/03/02 06:43:03;;;;;;;;;;;19.10;60.50;;;;;;5043925;28;1352;-70
2024/03/02 06:45:30;;;;;;;;;;;19.10;60.70;;;;;;5038214;28;1352;-70
2024/03/02 06:47:56;;;;;;;;;;;19.10;60.70;;;;;;5043618;28;1532;-69
2024/03/02 06:50:21;;;;;;;;;;;19.00;60.70;;;;;;5040801;28;1503;-69
2024/03/02 06:52:47;;;;;;;;;;;19.00;60.80;;;;;;5043539;28;1914;-69
2024/03/02 06:55:12;;;;;;;;;;;19.00;60.80;;;;;;5040892;28;1455;-70
2024/03/02 06:57:38;;;;;;;;;;;19.00;60.90;;;;;;5041174;28;1655;-69
2024/03/02 07:00:05;;;;;;;;;;;19.00;61.00;;;;;;5050667;28;1358;-68
2024/03/02 07:02:30;;;;;;;;;;;19.00;61.00;;;;;;5045535;28;1445;-68
2024/03/02 07:04:56;;;;;;;;;;;18.90;61.00;;;;;;5049502;28;1639;-68
2024/03/02 07:07:21;;;;;;;;;;;18.90;61.10;;;;;;5038371;28;1315;-69
2024/03/02 07:09:47;;;;;;;;;;;18.90;61.10;;;;;;5040936;28;1372;-69
2024/03/02 07:12:13;;;;;;;;;;;18.90;61.10;;;;;;5038292;28;1918;-69
2024/03/02 07:15:07;;;;;;;;;;;18.90;61.30;;;;;;5040818;28;1469;-69
2024/03/02 07:17:33;;;;;;;;;;;18.90;61.30;;;;;;5041989;28;1512;-70
2024/03/02 07:19:58;;;;;;;;;;;18.80;61.30;;;;;;5041422;28;1359;-70
2024/03/02 07:22:24;;;;;;;;;;;18.80;61.40;;;;;;5039171;28;1284;-69
2024/03/02 07:24:49;;;;;;;;;;;18.80;61.40;;;;;;5041996;28;1197;-69
2024/03/02 07:27:15;;;;;;;;;;;18.80;61.50;;;;;;5070994;28;1579;-69
2024/03/02 07:29:41;;;;;;;;;;;18.80;61.50;;;;;;5040853;28;1537;-70
2024/03/02 07:32:06;;;;;;;;;;;18.80;61.60;;;;;;5034954;28;1902;-69
2024/03/02 07:34:35;;;;;;;;;;;18.80;61.60;;;;;;5048322;28;1501;-69
2024/03/02 07:37:00;;;;;;;;;;;18.80;61.70;;;;;;5047635;28;1451;-70
2024/03/02 07:39:26;;;;;;;;;;;18.80;61.70;;;;;;5037929;28;1374;-70
2024/03/02 07:41:51;;;;;;;;;;;18.80;61.80;;;;;;5039968;28;1456;-68
2024/03/02 07:44:18;;;;;;;;;;;18.70;61.80;;;;;;5041346;28;1232;-69
2024/03/02 07:46:49;;;;;;;;;;;18.70;61.80;;;;;;5040323;28;1394;-68
2024/03/02 07:49:15;;;;;;;;;;;18.70;61.90;;;;;;5038547;28;1100;-69
2024/03/02 07:51:40;;;;;;;;;;;18.70;61.90;;;;;;5037295;28;1981;-69
2024/03/02 07:54:06;;;;;;;;;;;18.70;62.00;;;;;;5039546;28;1353;-69
2024/03/02 07:56:31;;;;;;;;;;;18.70;62.00;;;;;;5036372;28;1592;-70
2024/03/02 07:59:00;;;;;;;;;;;18.60;62.00;;;;;;5041260;28;1266;-69
2024/03/02 08:01:32;;;;;;;;;;;18.60;62.00;;;;;;5040235;28;1591;-69
2024/03/02 08:03:58;;;;;;;;;;;18.60;62.10;;;;;;5069129;28;1741;-70
2024/03/02 08:06:27;;;;;;;;;;;18.60;62.10;;;;;;5037705;28;1058;-71
2024/03/02 08:08:56;;;;;;;;;;;18.60;62.10;;;;;;5037806;28;1600;-70
2024/03/02 08:11:21;;;;;;;;;;;18.60;62.20;;;;;;5038404;28;1987;-70
2024/03/02 08:13:47;;;;;;;;;;;18.60;62.20;;;;;;5039608;28;1367;-71
2024/03/02 08:16:12;;;;;;;;;;;18.60;62.20;;;;;;5039751;28;1244;-71
2024/03/02 08:18:38;;;;;;;;;;;18.60;62.30;;;;;;5038758;28;1362;-71
2024/03/02 08:21:04;;;;;;;;;;;18.50;62.30;;;;;;5053341;28;1363;-71
2024/03/02 08:23:30;;;;;;;;;;;18.50;62.30;;;;;;5038054;28;1568;-71
2024/03/02 08:25:55;;;;;;;;;;;18.50;62.30;;;;;;5042493;28;1489;-72
2024/03/02 08:28:21;;;;;;;;;;;18.50;62.30;;;;;;5040163;28;1399;-72
2024/03/02 08:30:46;;;;;;;;;;;18.50;62.40;;;;;;5038360;28;1465;-72
2024/03/02 08:33:12;;;;;;;;;;;18.50;62.40;;;;;;5037850;28;1899;-70
2024/03/02 08:35:37;;;;;;;;;;;18.50;62.40;;;;;;5037547;28;1626;-71
2024/03/02 08:38:03;;;;;;;;;;;18.50;62.50;;;;;;5040581;28;1458;-71
2024/03/02 08:40:28;;;;;;;;;;;18.50;62.50;;;;;;5039390;28;1946;-71
2024/03/02 08:42:54;;;;;;;;;;;18.50;62.50;;;;;;5038870;28;1552;-71
2024/03/02 08:45:20;;;;;;;;;;;18.50;62.50;;;;;;5038647;28;1492;-71
2024/03/02 08:47:46;;;;;;;;;;;18.50;62.50;;;;;;5038883;28;1585;-73
2024/03/02 08:50:11;;;;;;;;;;;18.50;62.50;;;;;;5057965;28;1517;-73
2024/03/02 08:52:37;;;;;;;;;;;18.50;62.50;;;;;;5041259;28;1886;-72
2024/03/02 08:55:02;;;;;;;;;;;18.50;62.50;;;;;;5069921;28;1355;-72
2024/03/02 08:57:28;;;;;;;;;;;18.50;62.50;;;;;;5037392;28;1381;-71
2024/03/02 08:59:53;;;;;;;;;;;18.50;62.50;;;;;;5042666;28;1521;-71
2024/03/02 09:02:18;;;;;;;;;;;18.50;63.20;;;;;;5037718;28;1358;-71
2024/03/02 09:04:44;;;;;;;;;;;18.50;62.50;;;;;;5036580;28;1239;-71
2024/03/02 09:07:09;;;;;;;;;;;18.50;62.50;;;;;;5043528;28;1715;-72
2024/03/02 09:09:35;;;;;;;;;;;18.50;62.50;;;;;;5038212;28;1534;-71
2024/03/02 09:12:00;;;;;;;;;;;18.50;62.50;;;;;;5035910;28;1942;-71
2024/03/02 09:14:26;;;;;;;;;;;18.50;62.50;;;;;;5037542;28;1311;-72
2024/03/02 09:16:51;;;;;;;;;;;18.50;62.50;;;;;;5036236;28;1339;-71
2024/03/02 09:19:17;;;;;;;;;;;18.50;62.50;;;;;;5038472;28;1461;-72
2024/03/02 09:21:43;;;;;;;;;;;18.50;62.50;;;;;;5035784;28;1407;-70
2024/03/02 09:24:10;;;;;;;;;;;18.50;62.50;;;;;;5030029;28;1251;-70
2024/03/02 09:26:35;;;;;;;;;;;18.50;62.50;;;;;;5042729;28;1445;-70
2024/03/02 09:29:01;;;;;;;;;;;18.50;62.50;;;;;;5039620;28;1405;-71
2024/03/02 09:31:26;;;;;;;;;;;18.50;62.50;;;;;;5037862;28;1902;-71
2024/03/02 09:33:51;;;;;;;;;;;18.50;62.60;;;;;;5036729;28;1428;-70
2024/03/02 09:36:18;;;;;;;;;;;18.50;62.50;;;;;;5046187;28;1412;-71
2024/03/02 09:38:44;;;;;;;;;;;18.50;62.60;;;;;;5039533;28;1546;-69
2024/03/02 09:41:09;;;;;;;;;;;18.50;62.50;;;;;;5037862;28;1312;-71
2024/03/02 09:43:34;;;;;;;;;;;18.40;62.50;;;;;;5040098;28;1150;-70
2024/03/02 09:46:00;;;;;;;;;;;18.50;62.60;;;;;;5024882;28;1562;-70
2024/03/02 09:48:25;;;;;;;;;;;18.50;62.50;;;;;;5036675;28;1258;-70
2024/03/02 09:50:51;;;;;;;;;;;18.50;62.60;;;;;;5038488;28;1682;-70
2024/03/02 09:53:16;;;;;;;;;;;18.50;62.60;;;;;;5038157;28;1985;-67
2024/03/02 09:55:46;;;;;;;;;;;18.40;62.60;;;;;;5039142;28;1429;-70
2024/03/02 09:58:12;;;;;;;;;;;18.50;62.60;;;;;;5036537;28;1539;-72
2024/03/02 10:00:37;;;;;;;;;;;18.50;62.60;;;;;;5038660;28;1266;-72
2024/03/02 10:03:04;;;;;;;;;;;18.40;62.50;;;;;;5038701;28;1686;-71
2024/03/02 10:05:30;;;;;;;;;;;18.40;62.60;;;;;;5043104;28;1376;-71
2024/03/02 10:08:02;;;;;;;;;;;18.50;62.70;;;;;;5040153;28;1163;-69
2024/03/02 10:10:39;;;;;;;;;;;18.40;62.60;;;;;;5040297;28;1461;-70
2024/03/02 10:13:05;;;;;;;;;;;18.40;62.60;;;;;;5046391;28;1964;-70
2024/03/02 10:15:31;;;;;;;;;;;18.40;62.60;;;;;;5042929;28;1461;-70
2024/03/02 10:17:57;;;;;;;;;;;18.40;62.60;;;;;;5049166;28;1356;-70
2024/03/02 10:20:23;;;;;;;;;;;18.40;62.60;;;;;;5043067;28;1271;-69
2024/03/02 10:22:49;;;;;;;;;;;18.40;62.60;;;;;;5045895;28;1470;-71
2024/03/02 10:25:44;;;;;;;;;;;18.40;62.60;;;;;;5042720;28;1498;-70
2024/03/02 10:28:09;;;;;;;;;;;18.40;62.60;;;;;;5041859;28;1471;-69
2024/03/02 10:30:35;;;;;;;;;;;18.40;62.60;;;;;;5044880;28;1305;-68
2024/03/02 10:33:01;;;;;;;;;;;18.40;62.70;;;;;;5042491;28;1902;-67
2024/03/02 10:35:26;;;;;;;;;;;18.40;62.70;;;;;;5046231;28;1434;-69
2024/03/02 10:37:52;;;;;;;;;;;18.40;62.70;;;;;;5045263;28;1444;-68
2024/03/02 10:40:17;;;;;;;;;;;18.40;62.70;;;;;;5074933;28;1636;-69
2024/03/02 10:42:43;;;;;;;;;;;18.40;62.70;;;;;;5042799;28;1418;-68
2024/03/02 10:45:12;;;;;;;;;;;18.40;62.70;;;;;;5043336;28;1463;-68
2024/03/02 10:47:37;;;;;;;;;;;18.40;62.80;;;;;;5042381;28;1596;-70
2024/03/02 10:50:06;;;;;;;;;;;18.40;62.80;;;;;;5041943;28;1292;-68
2024/03/02 10:52:31;;;;;;;;;;;18.40;62.80;;;;;;5073810;28;1894;-68
2024/03/02 10:54:57;;;;;;;;;;;18.40;62.80;;;;;;5043740;28;1419;-68
2024/03/02 10:57:23;;;;;;;;;;;18.40;62.80;;;;;;5045396;28;1368;-68
2024/03/02 10:59:51;;;;;;;;;;;18.40;62.80;;;;;;5043065;28;1488;-69
2024/03/02 11:02:17;;;;;;;;;;;18.40;62.80;;;;;;5042078;28;1469;-68
2024/03/02 11:04:43;;;;;;;;;;;18.40;62.80;;;;;;5074129;28;1185;-67
2024/03/02 11:07:09;;;;;;;;;;;18.40;62.80;;;;;;5043542;28;1328;-69
2024/03/02 11:09:36;;;;;;;;;;;18.40;62.80;;;;;;5040887;28;1476;-69
2024/03/02 11:12:20;;;;;;;;;;;18.40;62.80;;;;;;5041014;28;1969;-67
2024/03/02 11:14:47;;;;;;;;;;;18.40;62.80;;;;;;5037918;28;1355;-68
2024/03/02 11:17:13;;;;;;;;;;;18.40;62.80;;;;;;5057420;28;1135;-67
2024/03/02 11:19:39;;;;;;;;;;;18.40;62.80;;;;;;5072847;28;1482;-68
2024/03/02 11:22:05;;;;;;;;;;;18.40;62.80;;;;;;5048412;28;1541;-69
2024/03/02 11:24:33;;;;;;;;;;;18.40;62.80;;;;;;5039326;28;1263;-71
2024/03/02 11:27:00;;;;;;;;;;;18.40;62.80;;;;;;5041080;28;1368;-69
2024/03/02 11:29:46;;;;;;;;;;;18.40;62.80;;;;;;5039275;28;1382;-69
2024/03/02 11:32:18;;;;;;;;;;;18.40;62.80;;;;;;5041676;28;1902;-68
2024/03/02 11:34:46;;;;;;;;;;;18.40;62.80;;;;;;5039777;28;1555;-70
2024/03/02 11:37:12;;;;;;;;;;;18.40;62.80;;;;;;5043276;28;1506;-69
2024/03/02 11:39:38;;;;;;;;;;;18.40;63.50;;;;;;5037855;28;816;-70
2024/03/02 11:42:05;;;;;;;;;;;18.40;62.80;;;;;;5042730;28;1418;-69
2024/03/02 11:44:30;;;;;;;;;;;18.40;62.80;;;;;;5037204;28;1316;-68
2024/03/02 11:46:59;;;;;;;;;;;18.40;62.80;;;;;;5048542;28;1644;-69
2024/03/02 11:49:45;;;;;;;;;;;18.40;62.80;;;;;;5038559;28;1647;-69
2024/03/02 11:52:11;;;;;;;;;;;18.40;62.80;;;;;;5038305;28;1894;-70
2024/03/02 11:54:39;;;;;;;;;;;18.40;62.80;;;;;;5041074;28;1271;-69
2024/03/02 11:57:05;;;;;;;;;;;18.40;62.80;;;;;;5041320;28;1694;-69
2024/03/02 11:59:30;;;;;;;;;;;18.40;62.80;;;;;;5039463;28;2182;-71
2024/03/02 12:01:56;;;;;;;;;;;18.40;62.80;;;;;;5040991;28;1273;-71
2024/03/02 12:04:21;;;;;;;;;;;18.40;62.80;;;;;;5041404;28;1269;-70
2024/03/02 12:06:47;;;;;;;;;;;18.40;62.80;;;;;;5077130;28;1575;-71
2024/03/02 12:09:14;;;;;;;;;;;18.40;62.80;;;;;;5044911;28;1147;-71
2024/03/02 12:11:40;;;;;;;;;;;18.40;62.80;;;;;;5043688;28;1961;-72
2024/03/02 12:14:10;;;;;;;;;;;18.40;62.80;;;;;;5050404;28;1408;-72
2024/03/02 12:16:37;;;;;;;;;;;18.40;62.80;;;;;;5042582;28;1250;-71
2024/03/02 12:19:02;;;;;;;;;;;18.40;62.90;;;;;;5044221;28;1327;-70
2024/03/02 12:21:28;;;;;;;;;;;18.40;62.90;;;;;;5041872;28;1429;-71
2024/03/02 12:23:54;;;;;;;;;;;18.40;62.90;;;;;;5058720;28;1356;-69
2024/03/02 12:26:19;;;;;;;;;;;18.40;62.90;;;;;;5042974;28;1402;-70
2024/03/02 12:28:45;;;;;;;;;;;18.30;62.80;;;;;;5039072;28;1327;-69
2024/03/02 12:31:10;;;;;;;;;;;18.40;62.90;;;;;;5040999;28;1569;-69
2024/03/02 12:33:36;;;;;;;;;;;18.30;62.90;;;;;;5047451;28;2020;-69
2024/03/02 12:36:02;;;;;;;;;;;18.30;62.90;;;;;;5039249;28;1522;-69
2024/03/02 12:38:29;;;;;;;;;;;18.30;62.90;;;;;;5038530;28;1474;-69
2024/03/02 12:40:54;;;;;;;;;;;18.30;62.90;;;;;;5039255;28;1529;-69
2024/03/02 12:43:19;;;;;;;;;;;18.30;62.90;;;;;;5037803;28;1590;-69
2024/03/02 12:45:45;;;;;;;;;;;18.30;63.00;;;;;;5072624;28;1489;-69
2024/03/02 12:48:10;;;;;;;;;;;18.30;63.00;;;;;;5039433;28;1386;-69
2024/03/02 12:50:36;;;;;;;;;;;18.30;63.00;;;;;;5039664;28;1632;-69
2024/03/02 12:53:02;;;;;;;;;;;18.30;63.00;;;;;;5021289;28;1898;-69
2024/03/02 12:55:28;;;;;;;;;;;18.30;63.00;;;;;;5040923;28;1533;-69
2024/03/02 12:57:54;;;;;;;;;;;18.30;63.10;;;;;;5037065;28;1527;-69
2024/03/02 13:00:20;;;;;;;;;;;18.30;63.10;;;;;;5039837;28;1515;-69
2024/03/02 13:02:45;;;;;;;;;;;18.30;63.10;;;;;;5040018;28;1475;-69
2024/03/02 13:05:11;;;;;;;;;;;18.30;63.20;;;;;;5036020;28;1477;-69
2024/03/02 13:07:37;;;;;;;;;;;18.20;63.10;;;;;;5072725;28;1249;-69
2024/03/02 13:10:02;;;;;;;;;;;18.20;63.20;;;;;;5038606;28;1335;-69
2024/03/02 13:12:28;;;;;;;;;;;18.20;63.30;;;;;;5038383;28;1907;-69
2024/03/02 13:14:53;;;;;;;;;;;18.20;63.20;;;;;;5038545;28;1502;-69
2024/03/02 13:17:19;;;;;;;;;;;18.20;63.30;;;;;;5056019;28;1291;-69
2024/03/02 13:19:52;;;;;;;;;;;18.20;63.30;;;;;;5035718;28;957;-70
2024/03/02 13:22:18;;;;;;;;;;;18.20;63.30;;;;;;5037052;28;1318;-69
2024/03/02 13:24:43;;;;;;;;;;;18.20;63.40;;;;;;5037220;28;1301;-69
2024/03/02 13:27:09;;;;;;;;;;;18.20;63.40;;;;;;5039988;28;1184;-70
2024/03/02 13:29:34;;;;;;;;;;;18.20;63.40;;;;;;5034958;28;1567;-69
2024/03/02 13:31:59;;;;;;;;;;;18.20;63.50;;;;;;5039863;28;1963;-69
2024/03/02 13:34:25;;;;;;;;;;;18.20;63.50;;;;;;5036009;28;1168;-69
2024/03/02 13:36:50;;;;;;;;;;;18.20;63.50;;;;;;5037117;28;1291;-70
2024/03/02 13:39:16;;;;;;;;;;;18.20;63.50;;;;;;5036131;28;1417;-69
2024/03/02 13:41:41;;;;;;;;;;;18.10;63.40;;;;;;5040464;28;1612;-69
2024/03/02 13:44:07;;;;;;;;;;;18.10;63.50;;;;;;5045700;28;1668;-69
2024/03/02 13:46:32;;;;;;;;;;;18.10;63.50;;;;;;5036530;28;1371;-70
2024/03/02 13:48:58;;;;;;;;;;;18.10;63.50;;;;;;5038823;28;1454;-69
2024/03/02 13:51:25;;;;;;;;;;;18.10;64.40;;;;;;5038235;28;1256;-71
2024/03/02 13:53:50;;;;;;;;;;;18.10;64.00;;;;;;5038539;28;1477;-71
2024/03/02 13:56:16;;;;;;;;;;;18.10;63.60;;;;;;5038079;28;1598;-70
2024/03/02 13:58:43;;;;;;;;;;;18.10;63.60;;;;;;5031865;28;1253;-71
2024/03/02 14:01:08;;;;;;;;;;;18.10;63.70;;;;;;5037508;28;1781;-71
2024/03/02 14:03:34;;;;;;;;;;;18.10;63.70;;;;;;5036845;28;1224;-70
2024/03/02 14:05:59;;;;;;;;;;;18.10;63.80;;;;;;5039769;28;1452;-70
2024/03/02 14:08:24;;;;;;;;;;;18.20;64.30;;;;;;5035726;28;1466;-69
2024/03/02 14:10:50;;;;;;;;;;;18.20;64.20;;;;;;5038274;28;1549;-68
2024/03/02 14:13:15;;;;;;;;;;;18.20;63.80;;;;;;5040124;28;1907;-68
2024/03/02 14:15:41;;;;;;;;;;;18.20;63.70;;;;;;5040090;28;1584;-71
2024/03/02 14:18:06;;;;;;;;;;;18.20;63.80;;;;;;5025188;28;1712;-70
2024/03/02 14:20:33;;;;;;;;;;;18.20;64.60;;;;;;5037596;28;1450;-70
2024/03/02 14:22:59;;;;;;;;;;;18.20;63.80;;;;;;5038887;28;1252;-70
2024/03/02 14:25:25;;;;;;;;;;;18.20;63.80;;;;;;5037393;28;1265;-70
2024/03/02 14:27:50;;;;;;;;;;;18.10;63.80;;;;;;5039687;28;1264;-70
2024/03/02 14:30:16;;;;;;;;;;;18.10;63.90;;;;;;5037708;28;1603;-70